sensor_id;sensor_type;location;lat;lon;timestamp;P1;durP1;ratioP1;P2;durP2;ratioP2
83443;SDS011;73374;41.170;-96.156;2023-10-31T00:02:06;3.45;;;0.60;;
83443;SDS011;73374;41.170;-96.156;2023-10-31T00:05:32;5.97;;;1.00;;
83443;SDS011;73374;41.170;-96.156;2023-10-31T00:08:59;2.55;;;0.85;;
83443;SDS011;73374;41.170;-96.156;2023-10-31T00:12:25;6.22;;;1.30;;
83443;SDS011;73374;41.170;-96.156;2023-10-31T00:15:52;5.50;;;0.80;;
83443;SDS011;73374;41.170;-96.156;2023-10-31T00:19:20;6.63;;;0.75;;
83443;SDS011;73374;41.170;-96.156;2023-10-31T00:22:47;8.65;;;1.40;;
83443;SDS011;73374;41.170;-96.156;2023-10-31T00:26:14;4.80;;;1.48;;
83443;SDS011;73374;41.170;-96.156;2023-10-31T00:29:40;7.18;;;1.20;;
83443;SDS011;73374;41.170;-96.156;2023-10-31T00:33:07;8.32;;;1.38;;
83443;SDS011;73374;41.170;-96.156;2023-10-31T00:36:35;12.90;;;1.85;;
83443;SDS011;73374;41.170;-96.156;2023-10-31T00:40:01;6.45;;;1.33;;
83443;SDS011;73374;41.170;-96.156;2023-10-31T00:43:28;8.38;;;1.35;;
83443;SDS011;73374;41.170;-96.156;2023-10-31T00:46:54;11.02;;;1.73;;
83443;SDS011;73374;41.170;-96.156;2023-10-31T00:50:21;9.15;;;1.55;;
83443;SDS011;73374;41.170;-96.156;2023-10-31T00:53:49;11.15;;;1.63;;
83443;SDS011;73374;41.170;-96.156;2023-10-31T00:57:16;12.13;;;1.65;;
83443;SDS011;73374;41.170;-96.156;2023-10-31T01:00:42;12.25;;;1.92;;
83443;SDS011;73374;41.170;-96.156;2023-10-31T01:04:10;18.45;;;2.03;;
83443;SDS011;73374;41.170;-96.156;2023-10-31T01:07:37;11.00;;;1.65;;
83443;SDS011;73374;41.170;-96.156;2023-10-31T01:11:06;2.65;;;1.33;;
83443;SDS011;73374;41.170;-96.156;2023-10-31T01:14:33;20.27;;;2.03;;
83443;SDS011;73374;41.170;-96.156;2023-10-31T01:17:59;7.60;;;1.75;;
83443;SDS011;73374;41.170;-96.156;2023-10-31T01:21:26;10.82;;;1.90;;
83443;SDS011;73374;41.170;-96.156;2023-10-31T01:24:52;18.67;;;2.33;;
83443;SDS011;73374;41.170;-96.156;2023-10-31T01:28:21;9.68;;;2.03;;
83443;SDS011;73374;41.170;-96.156;2023-10-31T01:31:47;11.23;;;1.63;;
83443;SDS011;73374;41.170;-96.156;2023-10-31T01:35:14;3.70;;;1.40;;
83443;SDS011;73374;41.170;-96.156;2023-10-31T01:38:41;4.50;;;1.13;;
83443;SDS011;73374;41.170;-96.156;2023-10-31T01:42:08;6.43;;;0.90;;
83443;SDS011;73374;41.170;-96.156;2023-10-31T01:45:36;5.88;;;1.17;;
83443;SDS011;73374;41.170;-96.156;2023-10-31T01:49:02;10.98;;;1.60;;
83443;SDS011;73374;41.170;-96.156;2023-10-31T01:52:29;7.43;;;1.08;;
83443;SDS011;73374;41.170;-96.156;2023-10-31T01:55:58;3.13;;;0.90;;
83443;SDS011;73374;41.170;-96.156;2023-10-31T01:59:25;7.60;;;1.20;;
83443;SDS011;73374;41.170;-96.156;2023-10-31T02:02:54;10.32;;;1.45;;
83443;SDS011;73374;41.170;-96.156;2023-10-31T02:06:21;9.85;;;1.13;;
83443;SDS011;73374;41.170;-96.156;2023-10-31T02:09:48;5.95;;;1.40;;
83443;SDS011;73374;41.170;-96.156;2023-10-31T02:13:14;2.25;;;1.13;;
83443;SDS011;73374;41.170;-96.156;2023-10-31T02:16:41;5.43;;;1.63;;
83443;SDS011;73374;41.170;-96.156;2023-10-31T02:20:10;7.15;;;1.63;;
83443;SDS011;73374;41.170;-96.156;2023-10-31T02:23:38;4.70;;;1.58;;
83443;SDS011;73374;41.170;-96.156;2023-10-31T02:27:05;5.60;;;1.30;;
83443;SDS011;73374;41.170;-96.156;2023-10-31T02:30:31;17.85;;;2.83;;
83443;SDS011;73374;41.170;-96.156;2023-10-31T02:33:58;6.60;;;0.93;;
83443;SDS011;73374;41.170;-96.156;2023-10-31T02:37:25;11.57;;;1.58;;
83443;SDS011;73374;41.170;-96.156;2023-10-31T02:40:53;11.23;;;1.10;;
83443;SDS011;73374;41.170;-96.156;2023-10-31T02:44:19;11.55;;;1.33;;
83443;SDS011;73374;41.170;-96.156;2023-10-31T02:47:46;14.77;;;1.40;;
83443;SDS011;73374;41.170;-96.156;2023-10-31T02:51:12;6.03;;;1.13;;
83443;SDS011;73374;41.170;-96.156;2023-10-31T02:54:39;2.72;;;1.30;;
83443;SDS011;73374;41.170;-96.156;2023-10-31T02:58:07;9.65;;;1.30;;
83443;SDS011;73374;41.170;-96.156;2023-10-31T03:01:34;6.72;;;1.02;;
83443;SDS011;73374;41.170;-96.156;2023-10-31T03:05:01;2.17;;;0.93;;
83443;SDS011;73374;41.170;-96.156;2023-10-31T03:08:27;7.55;;;1.23;;
83443;SDS011;73374;41.170;-96.156;2023-10-31T03:11:54;7.05;;;1.00;;
83443;SDS011;73374;41.170;-96.156;2023-10-31T03:15:22;7.47;;;1.15;;
83443;SDS011;73374;41.170;-96.156;2023-10-31T03:18:49;3.50;;;1.00;;
83443;SDS011;73374;41.170;-96.156;2023-10-31T03:22:15;5.65;;;0.80;;
83443;SDS011;73374;41.170;-96.156;2023-10-31T03:25:42;1.30;;;1.08;;
83443;SDS011;73374;41.170;-96.156;2023-10-31T03:29:08;3.50;;;0.98;;
83443;SDS011;73374;41.170;-96.156;2023-10-31T03:32:37;4.45;;;0.82;;
83443;SDS011;73374;41.170;-96.156;2023-10-31T03:36:04;5.45;;;1.13;;
83443;SDS011;73374;41.170;-96.156;2023-10-31T03:39:30;3.15;;;0.80;;
83443;SDS011;73374;41.170;-96.156;2023-10-31T03:42:57;6.82;;;1.35;;
83443;SDS011;73374;41.170;-96.156;2023-10-31T03:46:23;4.25;;;0.80;;
83443;SDS011;73374;41.170;-96.156;2023-10-31T03:49:52;2.45;;;0.75;;
83443;SDS011;73374;41.170;-96.156;2023-10-31T03:53:18;2.08;;;0.70;;
83443;SDS011;73374;41.170;-96.156;2023-10-31T03:56:45;4.28;;;1.20;;
83443;SDS011;73374;41.170;-96.156;2023-10-31T04:00:12;2.58;;;0.70;;
83443;SDS011;73374;41.170;-96.156;2023-10-31T04:03:39;8.48;;;1.33;;
83443;SDS011;73374;41.170;-96.156;2023-10-31T04:07:07;4.57;;;1.02;;
83443;SDS011;73374;41.170;-96.156;2023-10-31T04:10:33;4.00;;;1.00;;
83443;SDS011;73374;41.170;-96.156;2023-10-31T04:14:02;3.03;;;1.02;;
83443;SDS011;73374;41.170;-96.156;2023-10-31T04:17:29;3.35;;;1.30;;
83443;SDS011;73374;41.170;-96.156;2023-10-31T04:20:55;3.35;;;1.42;;
83443;SDS011;73374;41.170;-96.156;2023-10-31T04:24:23;2.67;;;1.02;;
83443;SDS011;73374;41.170;-96.156;2023-10-31T04:27:50;4.07;;;1.70;;
83443;SDS011;73374;41.170;-96.156;2023-10-31T04:31:17;5.05;;;1.70;;
83443;SDS011;73374;41.170;-96.156;2023-10-31T04:34:43;2.78;;;1.20;;
83443;SDS011;73374;41.170;-96.156;2023-10-31T04:38:10;2.45;;;0.88;;
83443;SDS011;73374;41.170;-96.156;2023-10-31T04:41:38;3.90;;;1.27;;
83443;SDS011;73374;41.170;-96.156;2023-10-31T04:45:06;2.40;;;0.57;;
83443;SDS011;73374;41.170;-96.156;2023-10-31T04:48:33;2.88;;;1.40;;
83443;SDS011;73374;41.170;-96.156;2023-10-31T04:52:01;4.85;;;1.33;;
83443;SDS011;73374;41.170;-96.156;2023-10-31T04:55:28;7.68;;;1.80;;
83443;SDS011;73374;41.170;-96.156;2023-10-31T04:58:56;3.72;;;1.38;;
83443;SDS011;73374;41.170;-96.156;2023-10-31T05:02:23;2.40;;;1.35;;
83443;SDS011;73374;41.170;-96.156;2023-10-31T05:05:49;4.47;;;1.77;;
83443;SDS011;73374;41.170;-96.156;2023-10-31T05:09:16;4.47;;;1.73;;
83443;SDS011;73374;41.170;-96.156;2023-10-31T05:12:42;9.55;;;2.30;;
83443;SDS011;73374;41.170;-96.156;2023-10-31T05:16:10;3.45;;;2.15;;
83443;SDS011;73374;41.170;-96.156;2023-10-31T05:19:37;2.50;;;1.38;;
83443;SDS011;73374;41.170;-96.156;2023-10-31T05:23:03;3.22;;;1.98;;
83443;SDS011;73374;41.170;-96.156;2023-10-31T05:26:30;3.67;;;1.67;;
83443;SDS011;73374;41.170;-96.156;2023-10-31T05:30:00;5.32;;;1.40;;
83443;SDS011;73374;41.170;-96.156;2023-10-31T05:33:28;3.00;;;1.70;;
83443;SDS011;73374;41.170;-96.156;2023-10-31T05:36:55;2.78;;;1.95;;
83443;SDS011;73374;41.170;-96.156;2023-10-31T05:40:22;2.78;;;1.23;;
83443;SDS011;73374;41.170;-96.156;2023-10-31T05:43:48;4.28;;;1.70;;
83443;SDS011;73374;41.170;-96.156;2023-10-31T05:47:15;2.33;;;1.38;;
83443;SDS011;73374;41.170;-96.156;2023-10-31T05:50:43;2.45;;;1.40;;
83443;SDS011;73374;41.170;-96.156;2023-10-31T05:54:10;2.55;;;1.80;;
83443;SDS011;73374;41.170;-96.156;2023-10-31T05:57:36;2.58;;;1.40;;
83443;SDS011;73374;41.170;-96.156;2023-10-31T06:01:03;2.95;;;2.00;;
83443;SDS011;73374;41.170;-96.156;2023-10-31T06:04:30;4.18;;;2.28;;
83443;SDS011;73374;41.170;-96.156;2023-10-31T06:07:58;3.22;;;1.60;;
83443;SDS011;73374;41.170;-96.156;2023-10-31T06:11:25;2.13;;;1.70;;
83443;SDS011;73374;41.170;-96.156;2023-10-31T06:14:51;4.75;;;1.90;;
83443;SDS011;73374;41.170;-96.156;2023-10-31T06:18:18;5.15;;;2.08;;
83443;SDS011;73374;41.170;-96.156;2023-10-31T06:21:45;2.35;;;1.73;;
83443;SDS011;73374;41.170;-96.156;2023-10-31T06:25:13;2.38;;;1.77;;
83443;SDS011;73374;41.170;-96.156;2023-10-31T06:28:40;3.25;;;2.35;;
83443;SDS011;73374;41.170;-96.156;2023-10-31T06:32:26;7.95;;;2.03;;
83443;SDS011;73374;41.170;-96.156;2023-10-31T06:35:53;4.22;;;1.98;;
83443;SDS011;73374;41.170;-96.156;2023-10-31T06:39:19;4.22;;;1.63;;
83443;SDS011;73374;41.170;-96.156;2023-10-31T06:42:47;5.97;;;2.30;;
83443;SDS011;73374;41.170;-96.156;2023-10-31T06:46:14;2.38;;;1.75;;
83443;SDS011;73374;41.170;-96.156;2023-10-31T06:49:40;3.40;;;1.88;;
83443;SDS011;73374;41.170;-96.156;2023-10-31T06:53:07;3.33;;;2.92;;
83443;SDS011;73374;41.170;-96.156;2023-10-31T06:56:35;1.75;;;1.50;;
83443;SDS011;73374;41.170;-96.156;2023-10-31T07:00:02;3.10;;;1.83;;
83443;SDS011;73374;41.170;-96.156;2023-10-31T07:03:28;2.97;;;2.15;;
83443;SDS011;73374;41.170;-96.156;2023-10-31T07:06:55;3.40;;;2.10;;
83443;SDS011;73374;41.170;-96.156;2023-10-31T07:10:22;2.38;;;2.10;;
83443;SDS011;73374;41.170;-96.156;2023-10-31T07:13:50;2.25;;;1.73;;
83443;SDS011;73374;41.170;-96.156;2023-10-31T07:17:16;4.25;;;2.35;;
83443;SDS011;73374;41.170;-96.156;2023-10-31T07:20:43;5.10;;;1.88;;
83443;SDS011;73374;41.170;-96.156;2023-10-31T07:24:09;2.95;;;1.90;;
83443;SDS011;73374;41.170;-96.156;2023-10-31T07:27:36;3.05;;;2.13;;
83443;SDS011;73374;41.170;-96.156;2023-10-31T07:31:04;2.63;;;2.08;;
83443;SDS011;73374;41.170;-96.156;2023-10-31T07:34:33;2.85;;;2.30;;
83443;SDS011;73374;41.170;-96.156;2023-10-31T07:38:00;2.10;;;1.80;;
83443;SDS011;73374;41.170;-96.156;2023-10-31T07:41:26;2.10;;;1.42;;
83443;SDS011;73374;41.170;-96.156;2023-10-31T07:44:53;4.07;;;1.98;;
83443;SDS011;73374;41.170;-96.156;2023-10-31T07:48:21;2.67;;;2.10;;
83443;SDS011;73374;41.170;-96.156;2023-10-31T07:51:47;2.33;;;1.88;;
83443;SDS011;73374;41.170;-96.156;2023-10-31T07:55:14;4.68;;;1.90;;
83443;SDS011;73374;41.170;-96.156;2023-10-31T07:58:44;1.75;;;1.23;;
83443;SDS011;73374;41.170;-96.156;2023-10-31T08:02:10;3.95;;;1.42;;
83443;SDS011;73374;41.170;-96.156;2023-10-31T08:05:39;2.10;;;1.80;;
83443;SDS011;73374;41.170;-96.156;2023-10-31T08:09:05;2.88;;;1.73;;
83443;SDS011;73374;41.170;-96.156;2023-10-31T08:12:32;3.30;;;1.60;;
83443;SDS011;73374;41.170;-96.156;2023-10-31T08:15:58;1.92;;;1.50;;
83443;SDS011;73374;41.170;-96.156;2023-10-31T08:19:25;2.53;;;1.60;;
83443;SDS011;73374;41.170;-96.156;2023-10-31T08:22:53;3.72;;;1.80;;
83443;SDS011;73374;41.170;-96.156;2023-10-31T08:26:20;1.88;;;1.35;;
83443;SDS011;73374;41.170;-96.156;2023-10-31T08:29:46;2.00;;;1.40;;
83443;SDS011;73374;41.170;-96.156;2023-10-31T08:33:13;2.97;;;1.20;;
83443;SDS011;73374;41.170;-96.156;2023-10-31T08:36:39;4.25;;;1.13;;
83443;SDS011;73374;41.170;-96.156;2023-10-31T08:40:09;1.63;;;1.27;;
83443;SDS011;73374;41.170;-96.156;2023-10-31T08:43:36;2.17;;;1.27;;
83443;SDS011;73374;41.170;-96.156;2023-10-31T08:47:03;1.98;;;1.00;;
83443;SDS011;73374;41.170;-96.156;2023-10-31T08:50:30;2.63;;;1.15;;
83443;SDS011;73374;41.170;-96.156;2023-10-31T08:53:56;3.65;;;1.10;;
83443;SDS011;73374;41.170;-96.156;2023-10-31T08:57:24;2.45;;;0.93;;
83443;SDS011;73374;41.170;-96.156;2023-10-31T09:00:51;2.33;;;1.10;;
83443;SDS011;73374;41.170;-96.156;2023-10-31T09:04:17;1.98;;;1.10;;
83443;SDS011;73374;41.170;-96.156;2023-10-31T09:07:44;1.20;;;0.93;;
83443;SDS011;73374;41.170;-96.156;2023-10-31T09:11:11;0.43;;;0.40;;
83443;SDS011;73374;41.170;-96.156;2023-10-31T09:14:39;1.00;;;0.77;;
83443;SDS011;73374;41.170;-96.156;2023-10-31T09:18:05;2.92;;;0.88;;
83443;SDS011;73374;41.170;-96.156;2023-10-31T09:21:32;2.67;;;0.60;;
83443;SDS011;73374;41.170;-96.156;2023-10-31T09:24:58;1.65;;;0.93;;
83443;SDS011;73374;41.170;-96.156;2023-10-31T09:28:25;2.95;;;0.77;;
83443;SDS011;73374;41.170;-96.156;2023-10-31T09:31:57;1.45;;;0.95;;
83443;SDS011;73374;41.170;-96.156;2023-10-31T09:35:24;2.35;;;0.70;;
83443;SDS011;73374;41.170;-96.156;2023-10-31T09:38:50;0.82;;;0.60;;
83443;SDS011;73374;41.170;-96.156;2023-10-31T09:42:17;3.30;;;0.77;;
83443;SDS011;73374;41.170;-96.156;2023-10-31T09:45:43;2.13;;;0.63;;
83443;SDS011;73374;41.170;-96.156;2023-10-31T09:49:12;0.95;;;0.57;;
83443;SDS011;73374;41.170;-96.156;2023-10-31T09:52:39;0.50;;;0.47;;
83443;SDS011;73374;41.170;-96.156;2023-10-31T09:56:06;1.27;;;0.60;;
83443;SDS011;73374;41.170;-96.156;2023-10-31T09:59:33;1.10;;;0.45;;
83443;SDS011;73374;41.170;-96.156;2023-10-31T10:03:00;0.90;;;0.68;;
83443;SDS011;73374;41.170;-96.156;2023-10-31T10:06:28;2.08;;;0.60;;
83443;SDS011;73374;41.170;-96.156;2023-10-31T10:09:55;0.20;;;0.20;;
83443;SDS011;73374;41.170;-96.156;2023-10-31T10:13:22;0.45;;;0.30;;
83443;SDS011;73374;41.170;-96.156;2023-10-31T10:16:50;1.67;;;0.30;;
83443;SDS011;73374;41.170;-96.156;2023-10-31T10:20:17;0.35;;;0.30;;
83443;SDS011;73374;41.170;-96.156;2023-10-31T10:23:46;0.60;;;0.45;;
83443;SDS011;73374;41.170;-96.156;2023-10-31T10:27:13;1.00;;;0.50;;
83443;SDS011;73374;41.170;-96.156;2023-10-31T10:30:40;1.95;;;0.50;;
83443;SDS011;73374;41.170;-96.156;2023-10-31T10:34:06;0.90;;;0.55;;
83443;SDS011;73374;41.170;-96.156;2023-10-31T10:37:34;1.08;;;0.30;;
83443;SDS011;73374;41.170;-96.156;2023-10-31T10:44:36;0.55;;;0.40;;
83443;SDS011;73374;41.170;-96.156;2023-10-31T10:48:04;0.45;;;0.45;;
83443;SDS011;73374;41.170;-96.156;2023-10-31T10:51:39;0.40;;;0.30;;
83443;SDS011;73374;41.170;-96.156;2023-10-31T10:55:11;1.55;;;0.68;;
83443;SDS011;73374;41.170;-96.156;2023-10-31T10:58:48;0.90;;;0.47;;
83443;SDS011;73374;41.170;-96.156;2023-10-31T11:02:18;0.70;;;0.50;;
83443;SDS011;73374;41.170;-96.156;2023-10-31T11:05:46;1.80;;;0.70;;
83443;SDS011;73374;41.170;-96.156;2023-10-31T11:09:13;0.40;;;0.35;;
83443;SDS011;73374;41.170;-96.156;2023-10-31T11:12:41;0.65;;;0.50;;
83443;SDS011;73374;41.170;-96.156;2023-10-31T11:16:11;1.67;;;0.50;;
83443;SDS011;73374;41.170;-96.156;2023-10-31T11:19:45;2.20;;;0.60;;
83443;SDS011;73374;41.170;-96.156;2023-10-31T11:23:12;0.88;;;0.68;;
83443;SDS011;73374;41.170;-96.156;2023-10-31T11:26:39;3.35;;;0.75;;
83443;SDS011;73374;41.170;-96.156;2023-10-31T11:30:20;2.55;;;0.60;;
83443;SDS011;73374;41.170;-96.156;2023-10-31T11:33:49;0.40;;;0.40;;
83443;SDS011;73374;41.170;-96.156;2023-10-31T11:37:18;0.70;;;0.45;;
83443;SDS011;73374;41.170;-96.156;2023-10-31T11:40:58;0.73;;;0.50;;
83443;SDS011;73374;41.170;-96.156;2023-10-31T11:44:26;4.25;;;0.63;;
83443;SDS011;73374;41.170;-96.156;2023-10-31T11:47:58;0.60;;;0.40;;
83443;SDS011;73374;41.170;-96.156;2023-10-31T11:51:24;1.88;;;0.68;;
83443;SDS011;73374;41.170;-96.156;2023-10-31T11:54:51;0.55;;;0.30;;
83443;SDS011;73374;41.170;-96.156;2023-10-31T11:58:18;0.90;;;0.40;;
83443;SDS011;73374;41.170;-96.156;2023-10-31T12:01:45;1.27;;;0.35;;
83443;SDS011;73374;41.170;-96.156;2023-10-31T12:05:25;2.08;;;0.40;;
83443;SDS011;73374;41.170;-96.156;2023-10-31T12:08:52;0.65;;;0.30;;
83443;SDS011;73374;41.170;-96.156;2023-10-31T12:12:28;1.13;;;0.30;;
83443;SDS011;73374;41.170;-96.156;2023-10-31T12:15:56;0.60;;;0.30;;
83443;SDS011;73374;41.170;-96.156;2023-10-31T12:19:23;1.27;;;0.20;;
83443;SDS011;73374;41.170;-96.156;2023-10-31T12:22:55;0.22;;;0.20;;
83443;SDS011;73374;41.170;-96.156;2023-10-31T12:26:29;0.95;;;0.25;;
83443;SDS011;73374;41.170;-96.156;2023-10-31T12:30:09;0.30;;;0.20;;
83443;SDS011;73374;41.170;-96.156;2023-10-31T12:33:35;0.47;;;0.20;;
83443;SDS011;73374;41.170;-96.156;2023-10-31T12:37:02;0.30;;;0.22;;
83443;SDS011;73374;41.170;-96.156;2023-10-31T12:40:30;0.85;;;0.20;;
83443;SDS011;73374;41.170;-96.156;2023-10-31T12:43:58;1.15;;;0.52;;
83443;SDS011;73374;41.170;-96.156;2023-10-31T12:47:25;0.50;;;0.30;;
83443;SDS011;73374;41.170;-96.156;2023-10-31T12:50:55;1.50;;;0.28;;
83443;SDS011;73374;41.170;-96.156;2023-10-31T12:54:34;0.88;;;0.50;;
83443;SDS011;73374;41.170;-96.156;2023-10-31T12:58:05;0.40;;;0.22;;
83443;SDS011;73374;41.170;-96.156;2023-10-31T13:01:32;0.57;;;0.30;;
83443;SDS011;73374;41.170;-96.156;2023-10-31T13:05:07;2.45;;;0.55;;
83443;SDS011;73374;41.170;-96.156;2023-10-31T13:08:40;0.40;;;0.40;;
83443;SDS011;73374;41.170;-96.156;2023-10-31T13:12:09;0.22;;;0.20;;
83443;SDS011;73374;41.170;-96.156;2023-10-31T13:15:36;0.20;;;0.20;;
83443;SDS011;73374;41.170;-96.156;2023-10-31T13:19:02;2.45;;;0.30;;
83443;SDS011;73374;41.170;-96.156;2023-10-31T13:22:29;0.38;;;0.20;;
83443;SDS011;73374;41.170;-96.156;2023-10-31T13:25:57;3.92;;;0.30;;
83443;SDS011;73374;41.170;-96.156;2023-10-31T13:29:23;0.15;;;0.10;;
83443;SDS011;73374;41.170;-96.156;2023-10-31T13:32:51;0.28;;;0.20;;
83443;SDS011;73374;41.170;-96.156;2023-10-31T13:36:17;0.47;;;0.30;;
83443;SDS011;73374;41.170;-96.156;2023-10-31T13:39:44;1.77;;;0.40;;
83443;SDS011;73374;41.170;-96.156;2023-10-31T13:43:12;1.83;;;0.40;;
83443;SDS011;73374;41.170;-96.156;2023-10-31T13:46:39;0.75;;;0.38;;
83443;SDS011;73374;41.170;-96.156;2023-10-31T13:50:06;0.28;;;0.13;;
83443;SDS011;73374;41.170;-96.156;2023-10-31T13:53:33;0.30;;;0.20;;
83443;SDS011;73374;41.170;-96.156;2023-10-31T13:56:59;0.28;;;0.28;;
83443;SDS011;73374;41.170;-96.156;2023-10-31T14:00:27;0.63;;;0.25;;
83443;SDS011;73374;41.170;-96.156;2023-10-31T14:03:54;0.77;;;0.30;;
83443;SDS011;73374;41.170;-96.156;2023-10-31T14:07:21;1.40;;;0.47;;
83443;SDS011;73374;41.170;-96.156;2023-10-31T14:10:48;1.00;;;0.40;;
83443;SDS011;73374;41.170;-96.156;2023-10-31T14:14:14;1.00;;;0.30;;
83443;SDS011;73374;41.170;-96.156;2023-10-31T14:17:42;3.70;;;0.30;;
83443;SDS011;73374;41.170;-96.156;2023-10-31T14:21:09;1.75;;;0.40;;
83443;SDS011;73374;41.170;-96.156;2023-10-31T14:24:35;0.40;;;0.20;;
83443;SDS011;73374;41.170;-96.156;2023-10-31T14:28:02;0.93;;;0.30;;
83443;SDS011;73374;41.170;-96.156;2023-10-31T14:31:28;0.57;;;0.20;;
83443;SDS011;73374;41.170;-96.156;2023-10-31T14:34:57;1.00;;;0.22;;
83443;SDS011;73374;41.170;-96.156;2023-10-31T14:38:23;1.33;;;0.20;;
83443;SDS011;73374;41.170;-96.156;2023-10-31T14:41:50;0.65;;;0.20;;
83443;SDS011;73374;41.170;-96.156;2023-10-31T14:45:16;2.05;;;0.30;;
83443;SDS011;73374;41.170;-96.156;2023-10-31T14:48:43;1.15;;;0.40;;
83443;SDS011;73374;41.170;-96.156;2023-10-31T14:52:11;0.15;;;0.10;;
83443;SDS011;73374;41.170;-96.156;2023-10-31T14:55:38;0.05;;;0.00;;
83443;SDS011;73374;41.170;-96.156;2023-10-31T14:59:04;0.55;;;0.20;;
83443;SDS011;73374;41.170;-96.156;2023-10-31T15:02:31;0.30;;;0.10;;
83443;SDS011;73374;41.170;-96.156;2023-10-31T15:05:58;1.20;;;0.20;;
83443;SDS011;73374;41.170;-96.156;2023-10-31T15:09:27;0.65;;;0.20;;
83443;SDS011;73374;41.170;-96.156;2023-10-31T15:12:54;0.47;;;0.20;;
83443;SDS011;73374;41.170;-96.156;2023-10-31T15:16:20;0.88;;;0.32;;
83443;SDS011;73374;41.170;-96.156;2023-10-31T15:19:47;0.90;;;0.20;;
83443;SDS011;73374;41.170;-96.156;2023-10-31T15:23:13;0.77;;;0.17;;
83443;SDS011;73374;41.170;-96.156;2023-10-31T15:26:41;1.52;;;0.20;;
83443;SDS011;73374;41.170;-96.156;2023-10-31T15:30:08;1.40;;;0.30;;
83443;SDS011;73374;41.170;-96.156;2023-10-31T15:33:35;1.15;;;0.20;;
83443;SDS011;73374;41.170;-96.156;2023-10-31T15:37:02;0.43;;;0.32;;
83443;SDS011;73374;41.170;-96.156;2023-10-31T15:40:28;1.45;;;0.20;;
83443;SDS011;73374;41.170;-96.156;2023-10-31T15:43:57;0.40;;;0.15;;
83443;SDS011;73374;41.170;-96.156;2023-10-31T15:47:23;0.17;;;0.10;;
83443;SDS011;73374;41.170;-96.156;2023-10-31T15:50:52;0.38;;;0.10;;
83443;SDS011;73374;41.170;-96.156;2023-10-31T15:54:19;0.05;;;0.00;;
83443;SDS011;73374;41.170;-96.156;2023-10-31T15:57:46;0.75;;;0.20;;
83443;SDS011;73374;41.170;-96.156;2023-10-31T16:01:14;0.13;;;0.10;;
83443;SDS011;73374;41.170;-96.156;2023-10-31T16:04:40;1.70;;;0.17;;
83443;SDS011;73374;41.170;-96.156;2023-10-31T16:08:07;2.47;;;0.20;;
83443;SDS011;73374;41.170;-96.156;2023-10-31T16:11:33;1.13;;;0.10;;
83443;SDS011;73374;41.170;-96.156;2023-10-31T16:15:00;1.80;;;0.30;;
83443;SDS011;73374;41.170;-96.156;2023-10-31T16:18:28;0.82;;;0.10;;
83443;SDS011;73374;41.170;-96.156;2023-10-31T16:21:55;0.20;;;0.20;;
83443;SDS011;73374;41.170;-96.156;2023-10-31T16:25:21;2.10;;;0.20;;
83443;SDS011;73374;41.170;-96.156;2023-10-31T16:28:48;2.97;;;0.10;;
83443;SDS011;73374;41.170;-96.156;2023-10-31T16:32:15;0.38;;;0.20;;
83443;SDS011;73374;41.170;-96.156;2023-10-31T16:35:43;3.03;;;0.20;;
83443;SDS011;73374;41.170;-96.156;2023-10-31T16:42:36;0.40;;;0.17;;
83443;SDS011;73374;41.170;-96.156;2023-10-31T16:46:02;9.20;;;0.52;;
83443;SDS011;73374;41.170;-96.156;2023-10-31T16:49:29;1.52;;;0.22;;
83443;SDS011;73374;41.170;-96.156;2023-10-31T16:52:57;1.30;;;0.10;;
83443;SDS011;73374;41.170;-96.156;2023-10-31T16:59:50;1.00;;;0.22;;
83443;SDS011;73374;41.170;-96.156;2023-10-31T17:03:18;2.15;;;0.20;;
83443;SDS011;73374;41.170;-96.156;2023-10-31T17:06:44;1.77;;;0.20;;
83443;SDS011;73374;41.170;-96.156;2023-10-31T17:10:12;1.13;;;0.32;;
83443;SDS011;73374;41.170;-96.156;2023-10-31T17:17:05;1.65;;;0.20;;
83443;SDS011;73374;41.170;-96.156;2023-10-31T17:20:32;0.80;;;0.20;;
83443;SDS011;73374;41.170;-96.156;2023-10-31T17:23:59;0.70;;;0.20;;
83443;SDS011;73374;41.170;-96.156;2023-10-31T17:27:29;3.63;;;0.20;;
83443;SDS011;73374;41.170;-96.156;2023-10-31T17:30:55;2.33;;;0.20;;
83443;SDS011;73374;41.170;-96.156;2023-10-31T17:34:24;0.90;;;0.17;;
83443;SDS011;73374;41.170;-96.156;2023-10-31T17:37:50;2.20;;;0.15;;
83443;SDS011;73374;41.170;-96.156;2023-10-31T17:41:17;1.40;;;0.50;;
83443;SDS011;73374;41.170;-96.156;2023-10-31T17:44:45;2.88;;;0.30;;
83443;SDS011;73374;41.170;-96.156;2023-10-31T17:48:11;0.30;;;0.13;;
83443;SDS011;73374;41.170;-96.156;2023-10-31T17:51:41;0.43;;;0.08;;
83443;SDS011;73374;41.170;-96.156;2023-10-31T17:55:08;0.68;;;0.20;;
83443;SDS011;73374;41.170;-96.156;2023-10-31T17:58:35;3.33;;;0.20;;
83443;SDS011;73374;41.170;-96.156;2023-10-31T18:02:03;0.55;;;0.10;;
83443;SDS011;73374;41.170;-96.156;2023-10-31T18:05:30;2.63;;;0.10;;
83443;SDS011;73374;41.170;-96.156;2023-10-31T18:08:56;0.75;;;0.13;;
83443;SDS011;73374;41.170;-96.156;2023-10-31T18:12:23;0.73;;;0.20;;
83443;SDS011;73374;41.170;-96.156;2023-10-31T18:15:49;0.50;;;0.10;;
83443;SDS011;73374;41.170;-96.156;2023-10-31T18:19:17;4.75;;;0.15;;
83443;SDS011;73374;41.170;-96.156;2023-10-31T18:22:44;0.17;;;0.15;;
83443;SDS011;73374;41.170;-96.156;2023-10-31T18:26:11;1.08;;;0.20;;
83443;SDS011;73374;41.170;-96.156;2023-10-31T18:29:37;1.08;;;0.30;;
83443;SDS011;73374;41.170;-96.156;2023-10-31T18:33:05;0.63;;;0.20;;
83443;SDS011;73374;41.170;-96.156;2023-10-31T18:36:33;1.58;;;0.25;;
83443;SDS011;73374;41.170;-96.156;2023-10-31T18:40:00;4.30;;;0.20;;
83443;SDS011;73374;41.170;-96.156;2023-10-31T18:43:27;1.00;;;0.20;;
83443;SDS011;73374;41.170;-96.156;2023-10-31T18:47:08;1.05;;;0.10;;
83443;SDS011;73374;41.170;-96.156;2023-10-31T18:50:34;0.68;;;0.30;;
83443;SDS011;73374;41.170;-96.156;2023-10-31T18:54:03;2.13;;;0.20;;
83443;SDS011;73374;41.170;-96.156;2023-10-31T18:57:29;0.50;;;0.20;;
83443;SDS011;73374;41.170;-96.156;2023-10-31T19:00:56;0.20;;;0.10;;
83443;SDS011;73374;41.170;-96.156;2023-10-31T19:04:22;2.65;;;0.30;;
83443;SDS011;73374;41.170;-96.156;2023-10-31T19:07:51;1.02;;;0.20;;
83443;SDS011;73374;41.170;-96.156;2023-10-31T19:11:17;2.35;;;0.30;;
83443;SDS011;73374;41.170;-96.156;2023-10-31T19:14:44;1.52;;;0.20;;
83443;SDS011;73374;41.170;-96.156;2023-10-31T19:18:10;2.90;;;0.30;;
83443;SDS011;73374;41.170;-96.156;2023-10-31T19:21:38;0.28;;;0.10;;
83443;SDS011;73374;41.170;-96.156;2023-10-31T19:25:06;0.25;;;0.13;;
83443;SDS011;73374;41.170;-96.156;2023-10-31T19:28:33;0.82;;;0.38;;
83443;SDS011;73374;41.170;-96.156;2023-10-31T19:31:59;0.40;;;0.20;;
83443;SDS011;73374;41.170;-96.156;2023-10-31T19:35:26;1.33;;;0.20;;
83443;SDS011;73374;41.170;-96.156;2023-10-31T19:38:53;0.65;;;0.20;;
83443;SDS011;73374;41.170;-96.156;2023-10-31T19:42:21;1.60;;;0.20;;
83443;SDS011;73374;41.170;-96.156;2023-10-31T19:45:47;0.17;;;0.17;;
83443;SDS011;73374;41.170;-96.156;2023-10-31T19:49:14;3.65;;;0.32;;
83443;SDS011;73374;41.170;-96.156;2023-10-31T19:52:40;2.65;;;0.20;;
83443;SDS011;73374;41.170;-96.156;2023-10-31T19:56:07;2.33;;;0.20;;
83443;SDS011;73374;41.170;-96.156;2023-10-31T19:59:43;0.60;;;0.20;;
83443;SDS011;73374;41.170;-96.156;2023-10-31T20:03:09;1.08;;;0.20;;
83443;SDS011;73374;41.170;-96.156;2023-10-31T20:06:36;0.77;;;0.20;;
83443;SDS011;73374;41.170;-96.156;2023-10-31T20:10:02;3.67;;;0.28;;
83443;SDS011;73374;41.170;-96.156;2023-10-31T20:13:29;0.77;;;0.10;;
83443;SDS011;73374;41.170;-96.156;2023-10-31T20:16:58;1.92;;;0.20;;
83443;SDS011;73374;41.170;-96.156;2023-10-31T20:20:24;0.65;;;0.10;;
83443;SDS011;73374;41.170;-96.156;2023-10-31T20:23:51;0.82;;;0.25;;
83443;SDS011;73374;41.170;-96.156;2023-10-31T20:27:17;1.63;;;0.32;;